This is the latest recevied weather packets stored in our database for station/object OM3WYM-13. If no packets are shown the sender has not sent any weather packets the latest 10 day(s).
| Time | Temp. | Humidity | Pressure | Rain* | Wind** | Luminosity | Snow |
|---|---|---|---|---|---|---|---|
| 1777695608 | 1.11° C | 97% | 1026.6 hPa | - | - | - | - |
| 1777695009 | 0.56° C | 97% | 1026.5 hPa | - | - | - | - |
| 1777694409 | 0.56° C | 97% | 1026.4 hPa | - | - | - | - |
| 1777693808 | 0.56° C | 98% | 1026.4 hPa | - | - | - | - |
| 1777693209 | 0.56° C | 99% | 1026.4 hPa | - | - | - | - |
| 1777692609 | 0.56° C | 99% | 1026.3 hPa | - | - | - | - |
| 1777692009 | 0.56° C | 98% | 1026.3 hPa | - | - | - | - |
| 1777691409 | 0.56° C | 96% | 1026.3 hPa | - | - | - | - |
| 1777690808 | 0.56° C | 95% | 1026.2 hPa | - | - | - | - |
| 1777690209 | 0.56° C | 95% | 1026.2 hPa | - | - | - | - |
| 1777689609 | 0.56° C | 95% | 1026.3 hPa | - | - | - | - |
| 1777689009 | 1.11° C | 93% | 1026.3 hPa | - | - | - | - |
| 1777674008 | 5° C | 78% | 1025.6 hPa | - | - | - | - |
| 1777673409 | 4.44° C | 77% | 1025.6 hPa | - | - | - | - |
| 1777672209 | 4.44° C | 76% | 1025.6 hPa | - | - | - | - |
| 1777670409 | 5° C | 73% | 1025.5 hPa | - | - | - | - |
| 1777669209 | 5.56° C | 70% | 1025.2 hPa | - | - | - | - |
| 1777668609 | 6.11° C | 69% | 1025.1 hPa | - | - | - | - |
| 1777668009 | 6.67° C | 68% | 1025.1 hPa | - | - | - | - |
| 1777667409 | 6.67° C | 68% | 1025 hPa | - | - | - | - |
| 1777666809 | 7.22° C | 67% | 1024.8 hPa | - | - | - | - |
| 1777666209 | 7.78° C | 65% | 1024.8 hPa | - | - | - | - |
| 1777665009 | 7.78° C | 64% | 1024.8 hPa | - | - | - | - |
| 1777663809 | 8.89° C | 61% | 1024.7 hPa | - | - | - | - |
| 1777663209 | 8.89° C | 60% | 1024.5 hPa | - | - | - | - |
* Rain since midnight (hover to see other rain measurements)
** Current wind speed in m/s (hover to see current wind gust speed)